sensor_id;sensor_type;location;lat;lon;timestamp;P1;durP1;ratioP1;P2;durP2;ratioP2
74059;SDS011;62414;53.436;8.828;2024-01-30T00:01:57;24.33;;;11.70;;
74059;SDS011;62414;53.436;8.828;2024-01-30T00:04:22;24.43;;;11.63;;
74059;SDS011;62414;53.436;8.828;2024-01-30T00:06:48;25.47;;;12.03;;
74059;SDS011;62414;53.436;8.828;2024-01-30T00:09:13;27.08;;;12.05;;
74059;SDS011;62414;53.436;8.828;2024-01-30T00:11:39;24.57;;;12.03;;
74059;SDS011;62414;53.436;8.828;2024-01-30T00:14:06;25.52;;;12.38;;
74059;SDS011;62414;53.436;8.828;2024-01-30T00:16:31;26.10;;;12.03;;
74059;SDS011;62414;53.436;8.828;2024-01-30T00:18:57;28.52;;;12.30;;
74059;SDS011;62414;53.436;8.828;2024-01-30T00:21:22;26.73;;;12.53;;
74059;SDS011;62414;53.436;8.828;2024-01-30T00:23:48;25.53;;;12.60;;
74059;SDS011;62414;53.436;8.828;2024-01-30T00:26:14;26.20;;;12.47;;
74059;SDS011;62414;53.436;8.828;2024-01-30T00:28:39;28.97;;;13.20;;
74059;SDS011;62414;53.436;8.828;2024-01-30T00:31:06;24.80;;;12.40;;
74059;SDS011;62414;53.436;8.828;2024-01-30T00:33:32;26.10;;;12.47;;
74059;SDS011;62414;53.436;8.828;2024-01-30T00:35:57;28.65;;;12.65;;
74059;SDS011;62414;53.436;8.828;2024-01-30T00:38:23;27.07;;;12.33;;
74059;SDS011;62414;53.436;8.828;2024-01-30T00:40:48;27.40;;;12.93;;
74059;SDS011;62414;53.436;8.828;2024-01-30T00:43:14;24.38;;;12.75;;
74059;SDS011;62414;53.436;8.828;2024-01-30T00:45:40;26.77;;;12.35;;
74059;SDS011;62414;53.436;8.828;2024-01-30T00:48:07;29.83;;;12.57;;
74059;SDS011;62414;53.436;8.828;2024-01-30T00:50:33;26.55;;;13.38;;
74059;SDS011;62414;53.436;8.828;2024-01-30T00:52:58;25.43;;;12.60;;
74059;SDS011;62414;53.436;8.828;2024-01-30T00:55:24;26.83;;;12.48;;
74059;SDS011;62414;53.436;8.828;2024-01-30T00:57:49;23.63;;;12.43;;
74059;SDS011;62414;53.436;8.828;2024-01-30T01:00:15;27.30;;;12.87;;
74059;SDS011;62414;53.436;8.828;2024-01-30T01:02:40;25.85;;;12.77;;
74059;SDS011;62414;53.436;8.828;2024-01-30T01:05:08;27.50;;;12.53;;
74059;SDS011;62414;53.436;8.828;2024-01-30T01:07:33;25.48;;;12.43;;
74059;SDS011;62414;53.436;8.828;2024-01-30T01:09:59;24.55;;;12.35;;
74059;SDS011;62414;53.436;8.828;2024-01-30T01:12:24;23.73;;;12.07;;
74059;SDS011;62414;53.436;8.828;2024-01-30T01:14:50;29.13;;;12.87;;
74059;SDS011;62414;53.436;8.828;2024-01-30T01:17:15;25.17;;;12.60;;
74059;SDS011;62414;53.436;8.828;2024-01-30T01:19:41;26.67;;;12.50;;
74059;SDS011;62414;53.436;8.828;2024-01-30T01:22:08;27.57;;;12.93;;
74059;SDS011;62414;53.436;8.828;2024-01-30T01:24:33;25.80;;;12.07;;
74059;SDS011;62414;53.436;8.828;2024-01-30T01:26:59;24.03;;;12.03;;
74059;SDS011;62414;53.436;8.828;2024-01-30T01:29:24;24.60;;;12.20;;
74059;SDS011;62414;53.436;8.828;2024-01-30T01:31:50;24.88;;;11.77;;
74059;SDS011;62414;53.436;8.828;2024-01-30T01:34:15;28.33;;;12.53;;
74059;SDS011;62414;53.436;8.828;2024-01-30T01:36:41;24.27;;;11.83;;
74059;SDS011;62414;53.436;8.828;2024-01-30T01:39:08;25.20;;;11.88;;
74059;SDS011;62414;53.436;8.828;2024-01-30T01:41:33;23.00;;;11.93;;
74059;SDS011;62414;53.436;8.828;2024-01-30T01:43:59;24.17;;;11.82;;
74059;SDS011;62414;53.436;8.828;2024-01-30T01:46:26;22.27;;;11.90;;
74059;SDS011;62414;53.436;8.828;2024-01-30T01:48:52;23.10;;;11.50;;
74059;SDS011;62414;53.436;8.828;2024-01-30T01:51:18;20.33;;;11.32;;
74059;SDS011;62414;53.436;8.828;2024-01-30T01:53:43;21.17;;;11.20;;
74059;SDS011;62414;53.436;8.828;2024-01-30T01:56:10;21.73;;;11.07;;
74059;SDS011;62414;53.436;8.828;2024-01-30T01:58:36;22.08;;;11.43;;
74059;SDS011;62414;53.436;8.828;2024-01-30T02:01:02;22.07;;;11.63;;
74059;SDS011;62414;53.436;8.828;2024-01-30T02:03:29;22.00;;;11.73;;
74059;SDS011;62414;53.436;8.828;2024-01-30T02:05:55;24.27;;;11.93;;
74059;SDS011;62414;53.436;8.828;2024-01-30T02:08:21;21.48;;;11.88;;
74059;SDS011;62414;53.436;8.828;2024-01-30T02:10:47;21.33;;;11.03;;
74059;SDS011;62414;53.436;8.828;2024-01-30T02:13:14;21.63;;;10.95;;
74059;SDS011;62414;53.436;8.828;2024-01-30T02:15:40;24.20;;;11.47;;
74059;SDS011;62414;53.436;8.828;2024-01-30T02:18:05;24.17;;;11.25;;
74059;SDS011;62414;53.436;8.828;2024-01-30T02:20:31;22.07;;;10.73;;
74059;SDS011;62414;53.436;8.828;2024-01-30T02:22:58;23.17;;;11.60;;
74059;SDS011;62414;53.436;8.828;2024-01-30T02:25:30;23.90;;;10.93;;
74059;SDS011;62414;53.436;8.828;2024-01-30T02:27:56;22.92;;;11.48;;
74059;SDS011;62414;53.436;8.828;2024-01-30T02:30:21;23.75;;;11.32;;
74059;SDS011;62414;53.436;8.828;2024-01-30T02:32:47;23.90;;;11.63;;
74059;SDS011;62414;53.436;8.828;2024-01-30T02:35:12;24.37;;;11.60;;
74059;SDS011;62414;53.436;8.828;2024-01-30T02:37:38;22.52;;;11.27;;
74059;SDS011;62414;53.436;8.828;2024-01-30T02:40:05;24.47;;;11.20;;
74059;SDS011;62414;53.436;8.828;2024-01-30T02:42:32;23.77;;;11.55;;
74059;SDS011;62414;53.436;8.828;2024-01-30T02:44:57;23.57;;;11.50;;
74059;SDS011;62414;53.436;8.828;2024-01-30T02:47:23;24.33;;;11.65;;
74059;SDS011;62414;53.436;8.828;2024-01-30T02:49:48;25.47;;;11.23;;
74059;SDS011;62414;53.436;8.828;2024-01-30T02:52:14;23.63;;;11.73;;
74059;SDS011;62414;53.436;8.828;2024-01-30T02:54:39;26.88;;;11.57;;
74059;SDS011;62414;53.436;8.828;2024-01-30T02:57:06;23.07;;;11.30;;
74059;SDS011;62414;53.436;8.828;2024-01-30T02:59:32;28.08;;;11.75;;
74059;SDS011;62414;53.436;8.828;2024-01-30T03:01:57;24.33;;;11.60;;
74059;SDS011;62414;53.436;8.828;2024-01-30T03:04:23;25.93;;;11.43;;
74059;SDS011;62414;53.436;8.828;2024-01-30T03:06:48;24.27;;;11.13;;
74059;SDS011;62414;53.436;8.828;2024-01-30T03:09:15;27.53;;;12.50;;
74059;SDS011;62414;53.436;8.828;2024-01-30T03:11:43;25.98;;;12.40;;
74059;SDS011;62414;53.436;8.828;2024-01-30T03:14:10;24.23;;;11.87;;
74059;SDS011;62414;53.436;8.828;2024-01-30T03:16:36;27.90;;;12.40;;
74059;SDS011;62414;53.436;8.828;2024-01-30T03:19:01;25.33;;;12.27;;
74059;SDS011;62414;53.436;8.828;2024-01-30T03:21:27;27.48;;;12.40;;
74059;SDS011;62414;53.436;8.828;2024-01-30T03:23:53;25.27;;;11.77;;
74059;SDS011;62414;53.436;8.828;2024-01-30T03:26:18;30.13;;;13.23;;
74059;SDS011;62414;53.436;8.828;2024-01-30T03:28:44;27.90;;;12.43;;
74059;SDS011;62414;53.436;8.828;2024-01-30T03:31:12;28.63;;;11.83;;
74059;SDS011;62414;53.436;8.828;2024-01-30T03:33:39;27.42;;;13.10;;
74059;SDS011;62414;53.436;8.828;2024-01-30T03:36:05;27.97;;;12.77;;
74059;SDS011;62414;53.436;8.828;2024-01-30T03:38:31;25.70;;;12.35;;
74059;SDS011;62414;53.436;8.828;2024-01-30T03:40:56;25.67;;;11.77;;
74059;SDS011;62414;53.436;8.828;2024-01-30T03:43:22;24.80;;;12.68;;
74059;SDS011;62414;53.436;8.828;2024-01-30T03:45:47;26.23;;;12.27;;
74059;SDS011;62414;53.436;8.828;2024-01-30T03:48:14;25.57;;;12.53;;
74059;SDS011;62414;53.436;8.828;2024-01-30T03:50:40;25.92;;;12.40;;
74059;SDS011;62414;53.436;8.828;2024-01-30T03:53:05;27.00;;;13.07;;
74059;SDS011;62414;53.436;8.828;2024-01-30T03:55:31;25.27;;;12.23;;
74059;SDS011;62414;53.436;8.828;2024-01-30T03:57:57;25.55;;;12.13;;
74059;SDS011;62414;53.436;8.828;2024-01-30T04:00:22;26.10;;;12.47;;
74059;SDS011;62414;53.436;8.828;2024-01-30T04:02:48;26.30;;;12.83;;
74059;SDS011;62414;53.436;8.828;2024-01-30T04:05:15;27.05;;;12.85;;
74059;SDS011;62414;53.436;8.828;2024-01-30T04:07:40;27.30;;;12.65;;
74059;SDS011;62414;53.436;8.828;2024-01-30T04:10:06;28.17;;;13.00;;
74059;SDS011;62414;53.436;8.828;2024-01-30T04:12:32;28.55;;;13.57;;
74059;SDS011;62414;53.436;8.828;2024-01-30T04:14:58;29.30;;;13.53;;
74059;SDS011;62414;53.436;8.828;2024-01-30T04:17:24;33.97;;;13.70;;
74059;SDS011;62414;53.436;8.828;2024-01-30T04:19:49;27.47;;;13.20;;
74059;SDS011;62414;53.436;8.828;2024-01-30T04:22:16;28.57;;;13.33;;
74059;SDS011;62414;53.436;8.828;2024-01-30T04:24:41;28.50;;;13.13;;
74059;SDS011;62414;53.436;8.828;2024-01-30T04:27:07;28.30;;;13.53;;
74059;SDS011;62414;53.436;8.828;2024-01-30T04:29:32;33.40;;;13.80;;
74059;SDS011;62414;53.436;8.828;2024-01-30T04:31:58;28.43;;;13.50;;
74059;SDS011;62414;53.436;8.828;2024-01-30T04:34:24;28.90;;;13.30;;
74059;SDS011;62414;53.436;8.828;2024-01-30T04:36:50;28.43;;;13.27;;
74059;SDS011;62414;53.436;8.828;2024-01-30T04:39:17;31.60;;;14.13;;
74059;SDS011;62414;53.436;8.828;2024-01-30T04:41:42;28.30;;;13.07;;
74059;SDS011;62414;53.436;8.828;2024-01-30T04:44:08;27.40;;;13.10;;
74059;SDS011;62414;53.436;8.828;2024-01-30T04:46:33;27.13;;;13.27;;
74059;SDS011;62414;53.436;8.828;2024-01-30T04:48:59;31.83;;;13.57;;
74059;SDS011;62414;53.436;8.828;2024-01-30T04:51:24;27.88;;;13.35;;
74059;SDS011;62414;53.436;8.828;2024-01-30T04:53:50;29.30;;;13.47;;
74059;SDS011;62414;53.436;8.828;2024-01-30T04:56:17;29.23;;;13.53;;
74059;SDS011;62414;53.436;8.828;2024-01-30T04:58:42;29.08;;;12.85;;
74059;SDS011;62414;53.436;8.828;2024-01-30T05:01:07;30.70;;;13.50;;
74059;SDS011;62414;53.436;8.828;2024-01-30T05:03:33;29.05;;;13.13;;
74059;SDS011;62414;53.436;8.828;2024-01-30T05:05:59;28.53;;;13.20;;
74059;SDS011;62414;53.436;8.828;2024-01-30T05:08:24;30.60;;;13.80;;
74059;SDS011;62414;53.436;8.828;2024-01-30T05:10:50;25.17;;;12.67;;
74059;SDS011;62414;53.436;8.828;2024-01-30T05:13:17;28.80;;;13.47;;
74059;SDS011;62414;53.436;8.828;2024-01-30T05:15:42;30.05;;;13.23;;
74059;SDS011;62414;53.436;8.828;2024-01-30T05:18:08;30.15;;;13.55;;
74059;SDS011;62414;53.436;8.828;2024-01-30T05:20:33;29.83;;;14.37;;
74059;SDS011;62414;53.436;8.828;2024-01-30T05:22:59;29.77;;;13.50;;
74059;SDS011;62414;53.436;8.828;2024-01-30T05:25:25;31.15;;;13.48;;
74059;SDS011;62414;53.436;8.828;2024-01-30T05:27:50;33.33;;;14.17;;
74059;SDS011;62414;53.436;8.828;2024-01-30T05:30:17;31.83;;;13.77;;
74059;SDS011;62414;53.436;8.828;2024-01-30T05:32:43;31.87;;;13.80;;
74059;SDS011;62414;53.436;8.828;2024-01-30T05:35:08;28.83;;;13.98;;
74059;SDS011;62414;53.436;8.828;2024-01-30T05:37:34;31.43;;;13.63;;
74059;SDS011;62414;53.436;8.828;2024-01-30T05:39:59;32.40;;;13.87;;
74059;SDS011;62414;53.436;8.828;2024-01-30T05:42:25;32.72;;;13.93;;
74059;SDS011;62414;53.436;8.828;2024-01-30T05:44:52;31.17;;;14.50;;
74059;SDS011;62414;53.436;8.828;2024-01-30T05:47:19;32.47;;;14.43;;
74059;SDS011;62414;53.436;8.828;2024-01-30T05:49:44;32.92;;;14.70;;
74059;SDS011;62414;53.436;8.828;2024-01-30T05:52:10;29.57;;;14.43;;
74059;SDS011;62414;53.436;8.828;2024-01-30T05:54:35;33.80;;;14.60;;
74059;SDS011;62414;53.436;8.828;2024-01-30T05:57:01;33.45;;;13.77;;
74059;SDS011;62414;53.436;8.828;2024-01-30T05:59:26;33.20;;;14.63;;
74059;SDS011;62414;53.436;8.828;2024-01-30T06:01:52;28.90;;;13.80;;
74059;SDS011;62414;53.436;8.828;2024-01-30T06:04:19;31.10;;;14.30;;
74059;SDS011;62414;53.436;8.828;2024-01-30T06:06:44;32.00;;;14.40;;
74059;SDS011;62414;53.436;8.828;2024-01-30T06:09:10;40.97;;;16.77;;
74059;SDS011;62414;53.436;8.828;2024-01-30T06:11:35;36.67;;;16.13;;
74059;SDS011;62414;53.436;8.828;2024-01-30T06:14:01;31.23;;;13.95;;
74059;SDS011;62414;53.436;8.828;2024-01-30T06:16:26;30.40;;;13.50;;
74059;SDS011;62414;53.436;8.828;2024-01-30T06:18:52;29.60;;;14.07;;
74059;SDS011;62414;53.436;8.828;2024-01-30T06:21:19;27.20;;;13.57;;
74059;SDS011;62414;53.436;8.828;2024-01-30T06:23:44;34.33;;;13.60;;
74059;SDS011;62414;53.436;8.828;2024-01-30T06:26:10;34.67;;;14.87;;
74059;SDS011;62414;53.436;8.828;2024-01-30T06:28:35;33.73;;;14.20;;
74059;SDS011;62414;53.436;8.828;2024-01-30T06:31:01;33.10;;;13.95;;
74059;SDS011;62414;53.436;8.828;2024-01-30T06:33:26;31.13;;;14.13;;
74059;SDS011;62414;53.436;8.828;2024-01-30T06:35:52;32.70;;;14.53;;
74059;SDS011;62414;53.436;8.828;2024-01-30T06:38:19;32.20;;;14.87;;
74059;SDS011;62414;53.436;8.828;2024-01-30T06:40:44;32.47;;;14.43;;
74059;SDS011;62414;53.436;8.828;2024-01-30T06:43:10;33.73;;;14.80;;
74059;SDS011;62414;53.436;8.828;2024-01-30T06:45:35;32.83;;;15.03;;
74059;SDS011;62414;53.436;8.828;2024-01-30T06:48:01;31.80;;;14.68;;
74059;SDS011;62414;53.436;8.828;2024-01-30T06:50:27;35.47;;;15.20;;
74059;SDS011;62414;53.436;8.828;2024-01-30T06:52:53;34.40;;;14.63;;
74059;SDS011;62414;53.436;8.828;2024-01-30T06:55:20;35.67;;;15.13;;
74059;SDS011;62414;53.436;8.828;2024-01-30T06:57:45;36.63;;;15.43;;
74059;SDS011;62414;53.436;8.828;2024-01-30T07:00:11;34.40;;;15.53;;
74059;SDS011;62414;53.436;8.828;2024-01-30T07:02:37;35.40;;;15.20;;
74059;SDS011;62414;53.436;8.828;2024-01-30T07:05:03;32.53;;;15.10;;
74059;SDS011;62414;53.436;8.828;2024-01-30T07:07:29;39.57;;;15.87;;
74059;SDS011;62414;53.436;8.828;2024-01-30T07:09:54;36.33;;;15.10;;
74059;SDS011;62414;53.436;8.828;2024-01-30T07:12:21;33.23;;;14.93;;
74059;SDS011;62414;53.436;8.828;2024-01-30T07:14:47;30.40;;;14.93;;
74059;SDS011;62414;53.436;8.828;2024-01-30T07:17:12;33.13;;;15.10;;
74059;SDS011;62414;53.436;8.828;2024-01-30T07:19:38;32.73;;;15.40;;
74059;SDS011;62414;53.436;8.828;2024-01-30T07:22:03;31.67;;;15.07;;
74059;SDS011;62414;53.436;8.828;2024-01-30T07:24:29;30.47;;;14.40;;
74059;SDS011;62414;53.436;8.828;2024-01-30T07:26:54;34.67;;;14.65;;
74059;SDS011;62414;53.436;8.828;2024-01-30T07:29:21;31.40;;;14.77;;
74059;SDS011;62414;53.436;8.828;2024-01-30T07:31:47;31.98;;;14.55;;
74059;SDS011;62414;53.436;8.828;2024-01-30T07:34:12;35.47;;;15.20;;
74059;SDS011;62414;53.436;8.828;2024-01-30T07:36:38;31.38;;;15.05;;
74059;SDS011;62414;53.436;8.828;2024-01-30T07:39:03;32.60;;;14.07;;
74059;SDS011;62414;53.436;8.828;2024-01-30T07:41:29;30.23;;;14.07;;
74059;SDS011;62414;53.436;8.828;2024-01-30T07:43:54;31.48;;;14.55;;
74059;SDS011;62414;53.436;8.828;2024-01-30T07:46:21;29.00;;;13.67;;
74059;SDS011;62414;53.436;8.828;2024-01-30T07:48:47;30.58;;;14.32;;
74059;SDS011;62414;53.436;8.828;2024-01-30T07:51:12;29.97;;;14.10;;
74059;SDS011;62414;53.436;8.828;2024-01-30T07:53:38;33.58;;;13.80;;
74059;SDS011;62414;53.436;8.828;2024-01-30T07:56:04;31.77;;;14.17;;
74059;SDS011;62414;53.436;8.828;2024-01-30T07:58:32;29.42;;;13.75;;
74059;SDS011;62414;53.436;8.828;2024-01-30T08:00:57;28.67;;;14.20;;
74059;SDS011;62414;53.436;8.828;2024-01-30T08:03:24;36.33;;;13.87;;
74059;SDS011;62414;53.436;8.828;2024-01-30T08:05:50;28.15;;;13.65;;
74059;SDS011;62414;53.436;8.828;2024-01-30T08:08:15;27.70;;;13.77;;
74059;SDS011;62414;53.436;8.828;2024-01-30T08:10:41;26.92;;;12.30;;
74059;SDS011;62414;53.436;8.828;2024-01-30T08:13:06;27.57;;;12.87;;
74059;SDS011;62414;53.436;8.828;2024-01-30T08:15:32;28.58;;;12.77;;
74059;SDS011;62414;53.436;8.828;2024-01-30T08:17:58;26.67;;;13.23;;
74059;SDS011;62414;53.436;8.828;2024-01-30T08:20:24;26.30;;;12.50;;
74059;SDS011;62414;53.436;8.828;2024-01-30T08:22:50;27.42;;;12.68;;
74059;SDS011;62414;53.436;8.828;2024-01-30T08:25:16;26.88;;;13.10;;
74059;SDS011;62414;53.436;8.828;2024-01-30T08:27:41;26.27;;;12.10;;
74059;SDS011;62414;53.436;8.828;2024-01-30T08:30:07;26.97;;;12.23;;
74059;SDS011;62414;53.436;8.828;2024-01-30T08:32:33;28.30;;;13.02;;
74059;SDS011;62414;53.436;8.828;2024-01-30T08:34:59;26.75;;;12.80;;
74059;SDS011;62414;53.436;8.828;2024-01-30T08:37:26;28.37;;;13.37;;
74059;SDS011;62414;53.436;8.828;2024-01-30T08:39:51;30.00;;;12.88;;
74059;SDS011;62414;53.436;8.828;2024-01-30T08:42:17;28.03;;;13.27;;
74059;SDS011;62414;53.436;8.828;2024-01-30T08:44:42;29.85;;;13.60;;
74059;SDS011;62414;53.436;8.828;2024-01-30T08:47:08;31.63;;;14.53;;
74059;SDS011;62414;53.436;8.828;2024-01-30T08:49:34;26.87;;;12.47;;
74059;SDS011;62414;53.436;8.828;2024-01-30T08:51:59;27.98;;;13.13;;
74059;SDS011;62414;53.436;8.828;2024-01-30T08:54:26;26.50;;;13.40;;
74059;SDS011;62414;53.436;8.828;2024-01-30T08:56:51;25.70;;;12.93;;
74059;SDS011;62414;53.436;8.828;2024-01-30T08:59:17;26.87;;;12.53;;
74059;SDS011;62414;53.436;8.828;2024-01-30T09:01:43;27.35;;;13.18;;
74059;SDS011;62414;53.436;8.828;2024-01-30T09:04:08;25.60;;;12.70;;
74059;SDS011;62414;53.436;8.828;2024-01-30T09:06:34;26.20;;;12.03;;
74059;SDS011;62414;53.436;8.828;2024-01-30T09:08:59;26.05;;;12.45;;
74059;SDS011;62414;53.436;8.828;2024-01-30T09:11:26;25.97;;;11.83;;
74059;SDS011;62414;53.436;8.828;2024-01-30T09:13:51;23.33;;;11.48;;
74059;SDS011;62414;53.436;8.828;2024-01-30T09:16:17;25.53;;;12.23;;
74059;SDS011;62414;53.436;8.828;2024-01-30T09:18:42;23.40;;;11.33;;
74059;SDS011;62414;53.436;8.828;2024-01-30T09:21:08;23.90;;;11.85;;
74059;SDS011;62414;53.436;8.828;2024-01-30T09:23:34;23.77;;;10.85;;
74059;SDS011;62414;53.436;8.828;2024-01-30T09:26:00;26.60;;;11.90;;
74059;SDS011;62414;53.436;8.828;2024-01-30T09:28:27;25.20;;;11.77;;
74059;SDS011;62414;53.436;8.828;2024-01-30T09:30:52;24.13;;;11.95;;
74059;SDS011;62414;53.436;8.828;2024-01-30T09:33:18;25.97;;;12.00;;
74059;SDS011;62414;53.436;8.828;2024-01-30T09:35:43;25.15;;;11.98;;
74059;SDS011;62414;53.436;8.828;2024-01-30T09:38:09;25.47;;;11.27;;
74059;SDS011;62414;53.436;8.828;2024-01-30T09:40:34;26.07;;;12.40;;
74059;SDS011;62414;53.436;8.828;2024-01-30T09:43:00;26.33;;;11.87;;
74059;SDS011;62414;53.436;8.828;2024-01-30T09:45:27;24.10;;;12.17;;
74059;SDS011;62414;53.436;8.828;2024-01-30T09:47:52;22.30;;;11.27;;
74059;SDS011;62414;53.436;8.828;2024-01-30T09:50:18;22.53;;;11.63;;
74059;SDS011;62414;53.436;8.828;2024-01-30T09:52:45;27.97;;;12.60;;
74059;SDS011;62414;53.436;8.828;2024-01-30T09:55:11;23.40;;;11.57;;
74059;SDS011;62414;53.436;8.828;2024-01-30T09:57:36;24.65;;;12.05;;
74059;SDS011;62414;53.436;8.828;2024-01-30T10:00:02;22.57;;;11.37;;
74059;SDS011;62414;53.436;8.828;2024-01-30T10:02:38;25.67;;;12.13;;
74059;SDS011;62414;53.436;8.828;2024-01-30T10:05:04;24.08;;;11.35;;
74059;SDS011;62414;53.436;8.828;2024-01-30T10:07:30;24.67;;;11.43;;
74059;SDS011;62414;53.436;8.828;2024-01-30T10:09:56;22.70;;;11.13;;
74059;SDS011;62414;53.436;8.828;2024-01-30T10:12:21;21.77;;;10.63;;
74059;SDS011;62414;53.436;8.828;2024-01-30T10:14:47;22.45;;;11.60;;
74059;SDS011;62414;53.436;8.828;2024-01-30T10:17:12;23.97;;;11.47;;
74059;SDS011;62414;53.436;8.828;2024-01-30T10:19:39;53.03;;;20.37;;
74059;SDS011;62414;53.436;8.828;2024-01-30T10:22:05;31.63;;;13.85;;
74059;SDS011;62414;53.436;8.828;2024-01-30T10:24:32;24.23;;;11.43;;
74059;SDS011;62414;53.436;8.828;2024-01-30T10:26:58;23.83;;;11.60;;
74059;SDS011;62414;53.436;8.828;2024-01-30T10:29:24;24.57;;;10.90;;
74059;SDS011;62414;53.436;8.828;2024-01-30T10:31:57;26.17;;;11.77;;
74059;SDS011;62414;53.436;8.828;2024-01-30T10:34:23;32.03;;;12.50;;
74059;SDS011;62414;53.436;8.828;2024-01-30T10:36:50;27.88;;;12.32;;
74059;SDS011;62414;53.436;8.828;2024-01-30T10:39:24;25.13;;;11.93;;
74059;SDS011;62414;53.436;8.828;2024-01-30T10:41:50;23.27;;;11.17;;
74059;SDS011;62414;53.436;8.828;2024-01-30T10:44:19;23.27;;;11.25;;
74059;SDS011;62414;53.436;8.828;2024-01-30T10:46:45;24.85;;;11.73;;
74059;SDS011;62414;53.436;8.828;2024-01-30T10:49:13;26.60;;;11.95;;
74059;SDS011;62414;53.436;8.828;2024-01-30T10:51:39;22.77;;;10.70;;
74059;SDS011;62414;53.436;8.828;2024-01-30T10:54:06;21.60;;;11.00;;
74059;SDS011;62414;53.436;8.828;2024-01-30T10:56:32;24.98;;;11.07;;
74059;SDS011;62414;53.436;8.828;2024-01-30T10:58:57;21.07;;;10.50;;
74059;SDS011;62414;53.436;8.828;2024-01-30T11:01:23;21.40;;;11.10;;
74059;SDS011;62414;53.436;8.828;2024-01-30T11:03:49;21.50;;;11.20;;
74059;SDS011;62414;53.436;8.828;2024-01-30T11:06:15;18.98;;;10.45;;
74059;SDS011;62414;53.436;8.828;2024-01-30T11:08:41;19.53;;;10.03;;
74059;SDS011;62414;53.436;8.828;2024-01-30T11:11:09;19.67;;;9.77;;
74059;SDS011;62414;53.436;8.828;2024-01-30T11:13:35;19.33;;;9.63;;
74059;SDS011;62414;53.436;8.828;2024-01-30T11:16:00;21.40;;;9.77;;
74059;SDS011;62414;53.436;8.828;2024-01-30T11:18:28;19.23;;;9.90;;
74059;SDS011;62414;53.436;8.828;2024-01-30T11:20:55;19.80;;;10.43;;
74059;SDS011;62414;53.436;8.828;2024-01-30T11:23:22;21.10;;;9.80;;
74059;SDS011;62414;53.436;8.828;2024-01-30T11:25:47;18.35;;;9.13;;
74059;SDS011;62414;53.436;8.828;2024-01-30T11:28:15;21.60;;;9.52;;
74059;SDS011;62414;53.436;8.828;2024-01-30T11:30:41;19.57;;;9.63;;
74059;SDS011;62414;53.436;8.828;2024-01-30T11:33:07;18.70;;;9.27;;
74059;SDS011;62414;53.436;8.828;2024-01-30T11:35:34;20.25;;;9.35;;
74059;SDS011;62414;53.436;8.828;2024-01-30T11:38:01;20.37;;;9.43;;
74059;SDS011;62414;53.436;8.828;2024-01-30T11:40:28;18.48;;;9.10;;
74059;SDS011;62414;53.436;8.828;2024-01-30T11:42:54;20.42;;;9.10;;
74059;SDS011;62414;53.436;8.828;2024-01-30T11:45:21;18.75;;;8.80;;
74059;SDS011;62414;53.436;8.828;2024-01-30T11:47:47;18.50;;;8.85;;
74059;SDS011;62414;53.436;8.828;2024-01-30T11:50:12;18.17;;;8.63;;
74059;SDS011;62414;53.436;8.828;2024-01-30T11:52:38;16.30;;;8.40;;
74059;SDS011;62414;53.436;8.828;2024-01-30T11:55:04;18.53;;;8.70;;
74059;SDS011;62414;53.436;8.828;2024-01-30T11:57:30;19.08;;;9.27;;
74059;SDS011;62414;53.436;8.828;2024-01-30T11:59:55;21.07;;;9.33;;
74059;SDS011;62414;53.436;8.828;2024-01-30T12:02:22;19.83;;;8.63;;
74059;SDS011;62414;53.436;8.828;2024-01-30T12:04:48;19.67;;;8.55;;
74059;SDS011;62414;53.436;8.828;2024-01-30T12:07:13;21.07;;;9.60;;
74059;SDS011;62414;53.436;8.828;2024-01-30T12:09:39;16.90;;;8.18;;
74059;SDS011;62414;53.436;8.828;2024-01-30T12:12:04;18.57;;;8.47;;
74059;SDS011;62414;53.436;8.828;2024-01-30T12:14:32;19.90;;;9.00;;
74059;SDS011;62414;53.436;8.828;2024-01-30T12:16:58;20.20;;;9.27;;
74059;SDS011;62414;53.436;8.828;2024-01-30T12:19:24;19.42;;;8.90;;
74059;SDS011;62414;53.436;8.828;2024-01-30T12:21:53;20.38;;;9.20;;
74059;SDS011;62414;53.436;8.828;2024-01-30T12:24:19;21.40;;;9.70;;
74059;SDS011;62414;53.436;8.828;2024-01-30T12:26:45;19.30;;;8.65;;
74059;SDS011;62414;53.436;8.828;2024-01-30T12:29:10;19.53;;;8.90;;
74059;SDS011;62414;53.436;8.828;2024-01-30T12:31:36;16.90;;;8.70;;
74059;SDS011;62414;53.436;8.828;2024-01-30T12:34:01;17.70;;;9.00;;
74059;SDS011;62414;53.436;8.828;2024-01-30T12:36:29;25.77;;;10.30;;
74059;SDS011;62414;53.436;8.828;2024-01-30T12:38:54;18.38;;;9.45;;
74059;SDS011;62414;53.436;8.828;2024-01-30T12:41:22;18.42;;;8.85;;
74059;SDS011;62414;53.436;8.828;2024-01-30T12:43:47;20.13;;;8.60;;
74059;SDS011;62414;53.436;8.828;2024-01-30T12:46:13;16.77;;;8.77;;
74059;SDS011;62414;53.436;8.828;2024-01-30T12:48:38;18.63;;;8.27;;
74059;SDS011;62414;53.436;8.828;2024-01-30T12:51:04;22.30;;;8.40;;
74059;SDS011;62414;53.436;8.828;2024-01-30T12:53:31;19.05;;;9.00;;
74059;SDS011;62414;53.436;8.828;2024-01-30T12:55:56;21.53;;;8.60;;
74059;SDS011;62414;53.436;8.828;2024-01-30T12:58:22;19.17;;;9.07;;
74059;SDS011;62414;53.436;8.828;2024-01-30T13:00:47;22.93;;;9.60;;
74059;SDS011;62414;53.436;8.828;2024-01-30T13:03:13;20.13;;;9.10;;
74059;SDS011;62414;53.436;8.828;2024-01-30T13:05:38;18.77;;;8.75;;
74059;SDS011;62414;53.436;8.828;2024-01-30T13:08:04;18.50;;;9.23;;
74059;SDS011;62414;53.436;8.828;2024-01-30T13:10:31;20.05;;;9.30;;
74059;SDS011;62414;53.436;8.828;2024-01-30T13:12:57;18.85;;;8.93;;
74059;SDS011;62414;53.436;8.828;2024-01-30T13:15:22;19.83;;;9.10;;
74059;SDS011;62414;53.436;8.828;2024-01-30T13:17:48;19.40;;;8.73;;
74059;SDS011;62414;53.436;8.828;2024-01-30T13:20:14;22.13;;;9.10;;
74059;SDS011;62414;53.436;8.828;2024-01-30T13:22:39;17.47;;;8.60;;
74059;SDS011;62414;53.436;8.828;2024-01-30T13:25:05;18.52;;;8.80;;
74059;SDS011;62414;53.436;8.828;2024-01-30T13:27:32;20.30;;;9.05;;
74059;SDS011;62414;53.436;8.828;2024-01-30T13:29:58;21.50;;;9.37;;
74059;SDS011;62414;53.436;8.828;2024-01-30T13:32:23;19.98;;;8.95;;
74059;SDS011;62414;53.436;8.828;2024-01-30T13:34:49;22.03;;;8.73;;
74059;SDS011;62414;53.436;8.828;2024-01-30T13:37:14;20.50;;;8.57;;
74059;SDS011;62414;53.436;8.828;2024-01-30T13:39:40;23.48;;;9.45;;
74059;SDS011;62414;53.436;8.828;2024-01-30T13:42:05;18.27;;;8.97;;
74059;SDS011;62414;53.436;8.828;2024-01-30T13:44:32;23.37;;;9.00;;
74059;SDS011;62414;53.436;8.828;2024-01-30T13:46:58;19.05;;;9.25;;
74059;SDS011;62414;53.436;8.828;2024-01-30T13:49:23;20.08;;;9.38;;
74059;SDS011;62414;53.436;8.828;2024-01-30T13:51:49;19.13;;;8.93;;
74059;SDS011;62414;53.436;8.828;2024-01-30T13:54:14;18.70;;;8.77;;
74059;SDS011;62414;53.436;8.828;2024-01-30T13:56:40;22.40;;;9.45;;
74059;SDS011;62414;53.436;8.828;2024-01-30T13:59:05;17.57;;;8.90;;
74059;SDS011;62414;53.436;8.828;2024-01-30T14:01:32;24.87;;;8.93;;
74059;SDS011;62414;53.436;8.828;2024-01-30T14:03:58;20.33;;;8.95;;
74059;SDS011;62414;53.436;8.828;2024-01-30T14:06:23;22.40;;;9.47;;
74059;SDS011;62414;53.436;8.828;2024-01-30T14:08:48;21.85;;;8.77;;
74059;SDS011;62414;53.436;8.828;2024-01-30T14:11:14;19.70;;;9.10;;
74059;SDS011;62414;53.436;8.828;2024-01-30T14:13:39;19.20;;;8.73;;
74059;SDS011;62414;53.436;8.828;2024-01-30T14:16:05;19.25;;;9.20;;